sensor_id;sensor_type;location;lat;lon;timestamp;pressure;altitude;pressure_sealevel;temperature;humidity
50632;BME280;49583;45.590;-122.498;2022-12-29T00:01:46;100652.33;;;8.46;79.27
50632;BME280;49583;45.590;-122.498;2022-12-29T00:04:00;100651.04;;;8.47;78.97
50632;BME280;49583;45.590;-122.498;2022-12-29T00:06:19;100649.80;;;8.48;79.00
50632;BME280;49583;45.590;-122.498;2022-12-29T00:08:31;100650.11;;;8.47;78.97
50632;BME280;49583;45.590;-122.498;2022-12-29T00:10:51;100653.79;;;8.45;78.90
50632;BME280;49583;45.590;-122.498;2022-12-29T00:13:06;100653.13;;;8.44;78.99
50632;BME280;49583;45.590;-122.498;2022-12-29T00:15:32;100655.36;;;8.43;79.11
50632;BME280;49583;45.590;-122.498;2022-12-29T00:17:51;100654.49;;;8.43;79.05
50632;BME280;49583;45.590;-122.498;2022-12-29T00:20:04;100648.95;;;8.42;78.86
50632;BME280;49583;45.590;-122.498;2022-12-29T00:22:34;100646.55;;;8.41;78.88
50632;BME280;49583;45.590;-122.498;2022-12-29T00:25:05;100644.98;;;8.38;79.02
50632;BME280;49583;45.590;-122.498;2022-12-29T00:27:45;100640.65;;;8.36;78.77
50632;BME280;49583;45.590;-122.498;2022-12-29T00:30:19;100637.00;;;8.34;78.79
50632;BME280;49583;45.590;-122.498;2022-12-29T00:32:49;100635.25;;;8.35;78.91
50632;BME280;49583;45.590;-122.498;2022-12-29T00:35:23;100628.27;;;8.34;78.63
50632;BME280;49583;45.590;-122.498;2022-12-29T00:37:38;100631.67;;;8.35;78.86
50632;BME280;49583;45.590;-122.498;2022-12-29T00:40:10;100634.73;;;8.33;78.61
50632;BME280;49583;45.590;-122.498;2022-12-29T00:42:40;100631.41;;;8.32;78.89
50632;BME280;49583;45.590;-122.498;2022-12-29T00:45:10;100628.23;;;8.32;78.73
50632;BME280;49583;45.590;-122.498;2022-12-29T00:47:23;100631.23;;;8.31;78.70
50632;BME280;49583;45.590;-122.498;2022-12-29T00:49:37;100634.14;;;8.30;78.68
50632;BME280;49583;45.590;-122.498;2022-12-29T00:51:50;100624.80;;;8.29;78.72
50632;BME280;49583;45.590;-122.498;2022-12-29T00:54:03;100620.36;;;8.28;78.72
50632;BME280;49583;45.590;-122.498;2022-12-29T00:56:16;100618.67;;;8.26;78.56
50632;BME280;49583;45.590;-122.498;2022-12-29T00:58:31;100612.39;;;8.25;78.74
50632;BME280;49583;45.590;-122.498;2022-12-29T01:00:44;100611.98;;;8.25;78.77
50632;BME280;49583;45.590;-122.498;2022-12-29T01:02:57;100610.14;;;8.23;78.63
50632;BME280;49583;45.590;-122.498;2022-12-29T01:05:12;100612.04;;;8.21;78.54
50632;BME280;49583;45.590;-122.498;2022-12-29T01:07:27;100608.87;;;8.19;78.46
50632;BME280;49583;45.590;-122.498;2022-12-29T01:09:40;100607.57;;;8.18;78.56
50632;BME280;49583;45.590;-122.498;2022-12-29T01:12:10;100612.81;;;8.16;78.56
50632;BME280;49583;45.590;-122.498;2022-12-29T01:14:23;100621.04;;;8.15;78.41
50632;BME280;49583;45.590;-122.498;2022-12-29T01:16:38;100622.50;;;8.14;78.58
50632;BME280;49583;45.590;-122.498;2022-12-29T01:18:51;100622.02;;;8.14;78.67
50632;BME280;49583;45.590;-122.498;2022-12-29T01:21:05;100620.60;;;8.13;78.49
50632;BME280;49583;45.590;-122.498;2022-12-29T01:23:18;100619.84;;;8.14;78.62
50632;BME280;49583;45.590;-122.498;2022-12-29T01:25:31;100618.05;;;8.14;78.56
50632;BME280;49583;45.590;-122.498;2022-12-29T01:27:44;100617.64;;;8.13;78.58
50632;BME280;49583;45.590;-122.498;2022-12-29T01:29:57;100613.02;;;8.12;78.48
50632;BME280;49583;45.590;-122.498;2022-12-29T01:32:11;100613.00;;;8.11;78.73
50632;BME280;49583;45.590;-122.498;2022-12-29T01:34:26;100617.05;;;8.11;78.29
50632;BME280;49583;45.590;-122.498;2022-12-29T01:36:39;100615.42;;;8.09;78.55
50632;BME280;49583;45.590;-122.498;2022-12-29T01:38:53;100613.34;;;8.10;78.53
50632;BME280;49583;45.590;-122.498;2022-12-29T01:41:08;100618.45;;;8.08;78.42
50632;BME280;49583;45.590;-122.498;2022-12-29T01:45:51;100617.06;;;8.09;78.58
50632;BME280;49583;45.590;-122.498;2022-12-29T01:48:08;100618.28;;;8.08;78.48
50632;BME280;49583;45.590;-122.498;2022-12-29T01:50:25;100621.85;;;8.08;78.53
50632;BME280;49583;45.590;-122.498;2022-12-29T01:52:56;100626.15;;;8.08;78.65
50632;BME280;49583;45.590;-122.498;2022-12-29T01:55:12;100624.58;;;8.08;78.53
50632;BME280;49583;45.590;-122.498;2022-12-29T01:57:30;100628.38;;;8.07;78.66
50632;BME280;49583;45.590;-122.498;2022-12-29T01:59:48;100626.42;;;8.07;78.36
50632;BME280;49583;45.590;-122.498;2022-12-29T02:02:05;100629.86;;;8.05;78.45
50632;BME280;49583;45.590;-122.498;2022-12-29T02:04:19;100632.25;;;8.04;78.48
50632;BME280;49583;45.590;-122.498;2022-12-29T02:06:36;100631.21;;;8.03;78.74
50632;BME280;49583;45.590;-122.498;2022-12-29T02:08:52;100628.61;;;8.02;78.45
50632;BME280;49583;45.590;-122.498;2022-12-29T02:11:06;100624.71;;;8.02;78.60
50632;BME280;49583;45.590;-122.498;2022-12-29T02:13:20;100624.84;;;8.01;78.63
50632;BME280;49583;45.590;-122.498;2022-12-29T02:15:39;100628.02;;;8.01;78.62
50632;BME280;49583;45.590;-122.498;2022-12-29T02:18:18;100629.85;;;8.01;78.78
50632;BME280;49583;45.590;-122.498;2022-12-29T02:21:00;100626.69;;;8.00;78.73
50632;BME280;49583;45.590;-122.498;2022-12-29T02:26:21;100623.31;;;8.00;78.70
50632;BME280;49583;45.590;-122.498;2022-12-29T02:28:57;100621.69;;;8.00;78.63
50632;BME280;49583;45.590;-122.498;2022-12-29T02:31:19;100621.36;;;8.00;78.78
50632;BME280;49583;45.590;-122.498;2022-12-29T02:33:46;100617.70;;;8.00;78.78
50632;BME280;49583;45.590;-122.498;2022-12-29T02:36:11;100619.35;;;8.00;78.81
50632;BME280;49583;45.590;-122.498;2022-12-29T02:38:37;100617.83;;;8.01;78.81
50632;BME280;49583;45.590;-122.498;2022-12-29T02:41:00;100617.62;;;8.02;79.08
50632;BME280;49583;45.590;-122.498;2022-12-29T02:43:26;100620.56;;;8.03;78.78
50632;BME280;49583;45.590;-122.498;2022-12-29T02:45:47;100616.13;;;8.03;78.81
50632;BME280;49583;45.590;-122.498;2022-12-29T02:48:08;100613.11;;;8.05;78.86
50632;BME280;49583;45.590;-122.498;2022-12-29T02:50:26;100615.23;;;8.06;78.77
50632;BME280;49583;45.590;-122.498;2022-12-29T02:52:46;100613.40;;;8.07;78.81
50632;BME280;49583;45.590;-122.498;2022-12-29T02:55:01;100609.10;;;8.09;78.97
50632;BME280;49583;45.590;-122.498;2022-12-29T02:57:27;100602.48;;;8.11;78.82
50632;BME280;49583;45.590;-122.498;2022-12-29T02:59:43;100604.17;;;8.14;78.84
50632;BME280;49583;45.590;-122.498;2022-12-29T03:02:22;100600.25;;;8.15;78.57
50632;BME280;49583;45.590;-122.498;2022-12-29T03:04:45;100599.36;;;8.14;78.46
50632;BME280;49583;45.590;-122.498;2022-12-29T03:07:12;100597.84;;;8.16;78.78
50632;BME280;49583;45.590;-122.498;2022-12-29T03:09:38;100593.50;;;8.16;78.73
50632;BME280;49583;45.590;-122.498;2022-12-29T03:11:59;100596.25;;;8.17;78.75
50632;BME280;49583;45.590;-122.498;2022-12-29T03:14:29;100593.77;;;8.18;78.68
50632;BME280;49583;45.590;-122.498;2022-12-29T03:17:03;100590.11;;;8.18;78.50
50632;BME280;49583;45.590;-122.498;2022-12-29T03:19:27;100587.34;;;8.19;78.59
50632;BME280;49583;45.590;-122.498;2022-12-29T03:21:43;100583.82;;;8.18;78.51
50632;BME280;49583;45.590;-122.498;2022-12-29T03:24:20;100582.49;;;8.21;78.69
50632;BME280;49583;45.590;-122.498;2022-12-29T03:26:37;100585.63;;;8.21;78.44
50632;BME280;49583;45.590;-122.498;2022-12-29T03:28:52;100585.52;;;8.20;78.53
50632;BME280;49583;45.590;-122.498;2022-12-29T03:31:10;100581.30;;;8.20;78.41
50632;BME280;49583;45.590;-122.498;2022-12-29T03:33:27;100582.55;;;8.20;78.47
50632;BME280;49583;45.590;-122.498;2022-12-29T03:35:44;100583.09;;;8.20;78.31
50632;BME280;49583;45.590;-122.498;2022-12-29T03:38:02;100582.48;;;8.20;78.42
50632;BME280;49583;45.590;-122.498;2022-12-29T03:40:20;100588.00;;;8.20;78.40
50632;BME280;49583;45.590;-122.498;2022-12-29T03:42:36;100586.70;;;8.18;78.40
50632;BME280;49583;45.590;-122.498;2022-12-29T03:44:55;100584.75;;;8.16;78.23
50632;BME280;49583;45.590;-122.498;2022-12-29T03:47:11;100581.40;;;8.10;78.02
50632;BME280;49583;45.590;-122.498;2022-12-29T03:49:26;100583.33;;;8.07;78.34
50632;BME280;49583;45.590;-122.498;2022-12-29T03:51:39;100582.17;;;8.05;78.27
50632;BME280;49583;45.590;-122.498;2022-12-29T03:53:54;100578.83;;;8.02;78.55
50632;BME280;49583;45.590;-122.498;2022-12-29T03:56:07;100575.73;;;8.00;78.44
50632;BME280;49583;45.590;-122.498;2022-12-29T03:58:20;100574.89;;;7.98;78.43
50632;BME280;49583;45.590;-122.498;2022-12-29T04:00:40;100572.64;;;7.96;78.29
50632;BME280;49583;45.590;-122.498;2022-12-29T04:02:54;100566.91;;;7.92;78.52
50632;BME280;49583;45.590;-122.498;2022-12-29T04:05:08;100565.80;;;7.91;78.74
50632;BME280;49583;45.590;-122.498;2022-12-29T04:07:23;100563.98;;;7.91;78.86
50632;BME280;49583;45.590;-122.498;2022-12-29T04:09:37;100558.89;;;7.90;78.95
50632;BME280;49583;45.590;-122.498;2022-12-29T04:11:52;100555.84;;;7.89;79.03
50632;BME280;49583;45.590;-122.498;2022-12-29T04:14:06;100554.80;;;7.88;79.23
50632;BME280;49583;45.590;-122.498;2022-12-29T04:16:19;100557.48;;;7.87;78.98
50632;BME280;49583;45.590;-122.498;2022-12-29T04:18:32;100556.41;;;7.85;79.37
50632;BME280;49583;45.590;-122.498;2022-12-29T04:20:46;100556.06;;;7.84;79.33
50632;BME280;49583;45.590;-122.498;2022-12-29T04:23:17;100554.79;;;7.83;79.36
50632;BME280;49583;45.590;-122.498;2022-12-29T04:25:30;100558.86;;;7.80;79.38
50632;BME280;49583;45.590;-122.498;2022-12-29T04:27:44;100552.59;;;7.79;79.31
50632;BME280;49583;45.590;-122.498;2022-12-29T04:30:16;100550.52;;;7.78;79.23
50632;BME280;49583;45.590;-122.498;2022-12-29T04:32:58;100549.98;;;7.76;79.54
50632;BME280;49583;45.590;-122.498;2022-12-29T04:35:12;100554.84;;;7.74;79.60
50632;BME280;49583;45.590;-122.498;2022-12-29T04:37:27;100553.90;;;7.73;79.50
50632;BME280;49583;45.590;-122.498;2022-12-29T04:39:40;100548.14;;;7.71;79.60
50632;BME280;49583;45.590;-122.498;2022-12-29T04:41:53;100547.73;;;7.71;79.63
50632;BME280;49583;45.590;-122.498;2022-12-29T04:44:07;100548.91;;;7.69;79.47
50632;BME280;49583;45.590;-122.498;2022-12-29T04:46:46;100549.52;;;7.65;79.71
50632;BME280;49583;45.590;-122.498;2022-12-29T04:49:11;100547.73;;;7.63;79.75
50632;BME280;49583;45.590;-122.498;2022-12-29T04:51:49;100544.63;;;7.59;79.75
50632;BME280;49583;45.590;-122.498;2022-12-29T04:54:02;100539.77;;;7.55;79.83
50632;BME280;49583;45.590;-122.498;2022-12-29T04:56:15;100538.27;;;7.52;80.10
50632;BME280;49583;45.590;-122.498;2022-12-29T04:58:29;100534.16;;;7.50;80.27
50632;BME280;49583;45.590;-122.498;2022-12-29T05:00:43;100534.67;;;7.47;80.43
50632;BME280;49583;45.590;-122.498;2022-12-29T05:02:56;100528.36;;;7.44;80.35
50632;BME280;49583;45.590;-122.498;2022-12-29T05:05:11;100526.45;;;7.40;80.39
50632;BME280;49583;45.590;-122.498;2022-12-29T05:07:28;100521.81;;;7.39;80.58
50632;BME280;49583;45.590;-122.498;2022-12-29T05:09:44;100519.23;;;7.36;80.66
50632;BME280;49583;45.590;-122.498;2022-12-29T05:11:57;100513.13;;;7.34;80.80
50632;BME280;49583;45.590;-122.498;2022-12-29T05:14:12;100505.73;;;7.32;81.01
50632;BME280;49583;45.590;-122.498;2022-12-29T05:16:27;100502.98;;;7.31;81.06
50632;BME280;49583;45.590;-122.498;2022-12-29T05:18:41;100495.05;;;7.31;81.03
50632;BME280;49583;45.590;-122.498;2022-12-29T05:20:54;100490.33;;;7.32;81.28
50632;BME280;49583;45.590;-122.498;2022-12-29T05:23:07;100494.35;;;7.33;81.40
50632;BME280;49583;45.590;-122.498;2022-12-29T05:25:20;100492.28;;;7.35;81.42
50632;BME280;49583;45.590;-122.498;2022-12-29T05:28:00;100488.89;;;7.36;81.59
50632;BME280;49583;45.590;-122.498;2022-12-29T05:30:33;100480.60;;;7.38;81.60
50632;BME280;49583;45.590;-122.498;2022-12-29T05:32:46;100480.88;;;7.39;81.50
50632;BME280;49583;45.590;-122.498;2022-12-29T05:35:00;100485.69;;;7.39;81.74
50632;BME280;49583;45.590;-122.498;2022-12-29T05:37:14;100478.45;;;7.38;81.65
50632;BME280;49583;45.590;-122.498;2022-12-29T05:39:28;100476.17;;;7.38;81.65
50632;BME280;49583;45.590;-122.498;2022-12-29T05:41:43;100480.39;;;7.35;81.48
50632;BME280;49583;45.590;-122.498;2022-12-29T05:44:18;100474.06;;;7.32;81.36
50632;BME280;49583;45.590;-122.498;2022-12-29T05:46:53;100476.89;;;7.28;81.33
50632;BME280;49583;45.590;-122.498;2022-12-29T05:49:21;100469.95;;;7.25;81.38
50632;BME280;49583;45.590;-122.498;2022-12-29T05:51:40;100469.02;;;7.23;81.35
50632;BME280;49583;45.590;-122.498;2022-12-29T05:53:54;100468.56;;;7.21;81.46
50632;BME280;49583;45.590;-122.498;2022-12-29T05:56:09;100477.93;;;7.19;81.42
50632;BME280;49583;45.590;-122.498;2022-12-29T05:58:22;100472.68;;;7.13;81.24
50632;BME280;49583;45.590;-122.498;2022-12-29T06:00:37;100467.33;;;7.09;81.39
50632;BME280;49583;45.590;-122.498;2022-12-29T06:02:52;100459.41;;;7.04;81.41
50632;BME280;49583;45.590;-122.498;2022-12-29T06:05:05;100455.86;;;7.01;81.46
50632;BME280;49583;45.590;-122.498;2022-12-29T06:07:20;100452.12;;;6.98;81.56
50632;BME280;49583;45.590;-122.498;2022-12-29T06:09:34;100453.93;;;6.95;81.59
50632;BME280;49583;45.590;-122.498;2022-12-29T06:11:48;100455.08;;;6.93;81.57
50632;BME280;49583;45.590;-122.498;2022-12-29T06:14:02;100450.55;;;6.90;81.56
50632;BME280;49583;45.590;-122.498;2022-12-29T06:16:17;100447.04;;;6.87;81.63
50632;BME280;49583;45.590;-122.498;2022-12-29T06:18:32;100443.53;;;6.87;81.57
50632;BME280;49583;45.590;-122.498;2022-12-29T06:20:49;100436.70;;;6.85;81.72
50632;BME280;49583;45.590;-122.498;2022-12-29T06:23:04;100435.36;;;6.82;81.56
50632;BME280;49583;45.590;-122.498;2022-12-29T06:25:17;100429.30;;;6.77;81.49
50632;BME280;49583;45.590;-122.498;2022-12-29T06:27:30;100418.59;;;6.76;81.52
50632;BME280;49583;45.590;-122.498;2022-12-29T06:29:44;100416.61;;;6.75;81.54
50632;BME280;49583;45.590;-122.498;2022-12-29T06:31:58;100411.70;;;6.74;81.59
50632;BME280;49583;45.590;-122.498;2022-12-29T06:34:13;100412.05;;;6.74;81.65
50632;BME280;49583;45.590;-122.498;2022-12-29T06:36:26;100414.06;;;6.73;81.56
50632;BME280;49583;45.590;-122.498;2022-12-29T06:38:40;100416.45;;;6.72;81.57
50632;BME280;49583;45.590;-122.498;2022-12-29T06:40:55;100419.06;;;6.69;81.60
50632;BME280;49583;45.590;-122.498;2022-12-29T06:43:27;100415.96;;;6.64;81.59
50632;BME280;49583;45.590;-122.498;2022-12-29T06:45:45;100416.09;;;6.58;81.52
50632;BME280;49583;45.590;-122.498;2022-12-29T06:47:58;100409.05;;;6.52;81.58
50632;BME280;49583;45.590;-122.498;2022-12-29T06:50:13;100402.55;;;6.48;81.58
50632;BME280;49583;45.590;-122.498;2022-12-29T06:52:26;100394.34;;;6.42;81.73
50632;BME280;49583;45.590;-122.498;2022-12-29T06:54:39;100395.61;;;6.39;81.63
50632;BME280;49583;45.590;-122.498;2022-12-29T06:56:52;100390.83;;;6.35;81.76
50632;BME280;49583;45.590;-122.498;2022-12-29T06:59:05;100389.88;;;6.32;81.79
50632;BME280;49583;45.590;-122.498;2022-12-29T07:01:19;100384.13;;;6.30;81.92
50632;BME280;49583;45.590;-122.498;2022-12-29T07:03:32;100379.36;;;6.27;81.88
50632;BME280;49583;45.590;-122.498;2022-12-29T07:05:46;100377.24;;;6.24;82.03
50632;BME280;49583;45.590;-122.498;2022-12-29T07:07:58;100375.25;;;6.21;82.08
50632;BME280;49583;45.590;-122.498;2022-12-29T07:10:11;100368.90;;;6.16;82.11
50632;BME280;49583;45.590;-122.498;2022-12-29T07:12:26;100372.48;;;6.14;82.24
50632;BME280;49583;45.590;-122.498;2022-12-29T07:14:40;100371.13;;;6.08;82.52
50632;BME280;49583;45.590;-122.498;2022-12-29T07:16:53;100366.94;;;6.04;82.52
50632;BME280;49583;45.590;-122.498;2022-12-29T07:19:05;100361.09;;;5.99;82.34
50632;BME280;49583;45.590;-122.498;2022-12-29T07:21:19;100358.55;;;5.95;82.56
50632;BME280;49583;45.590;-122.498;2022-12-29T07:23:32;100353.56;;;5.93;82.45
50632;BME280;49583;45.590;-122.498;2022-12-29T07:25:45;100349.86;;;5.89;82.55
50632;BME280;49583;45.590;-122.498;2022-12-29T07:27:58;100342.77;;;5.86;82.92
50632;BME280;49583;45.590;-122.498;2022-12-29T07:30:12;100338.59;;;5.85;82.93
50632;BME280;49583;45.590;-122.498;2022-12-29T07:32:26;100344.81;;;5.85;83.14
50632;BME280;49583;45.590;-122.498;2022-12-29T07:34:39;100344.28;;;5.84;82.99
50632;BME280;49583;45.590;-122.498;2022-12-29T07:36:51;100341.77;;;5.80;83.01
50632;BME280;49583;45.590;-122.498;2022-12-29T07:39:05;100331.17;;;5.77;83.23
50632;BME280;49583;45.590;-122.498;2022-12-29T07:41:18;100327.09;;;5.73;83.28
50632;BME280;49583;45.590;-122.498;2022-12-29T07:43:31;100323.73;;;5.68;83.22
50632;BME280;49583;45.590;-122.498;2022-12-29T07:46:03;100323.05;;;5.64;83.45
50632;BME280;49583;45.590;-122.498;2022-12-29T07:48:17;100318.70;;;5.62;83.31
50632;BME280;49583;45.590;-122.498;2022-12-29T07:50:29;100318.71;;;5.60;83.46
50632;BME280;49583;45.590;-122.498;2022-12-29T07:52:42;100315.64;;;5.59;83.63
50632;BME280;49583;45.590;-122.498;2022-12-29T07:54:57;100314.27;;;5.57;83.87
50632;BME280;49583;45.590;-122.498;2022-12-29T07:57:10;100310.59;;;5.56;84.01
50632;BME280;49583;45.590;-122.498;2022-12-29T07:59:23;100309.64;;;5.54;83.99
50632;BME280;49583;45.590;-122.498;2022-12-29T08:01:36;100304.04;;;5.52;84.10
50632;BME280;49583;45.590;-122.498;2022-12-29T08:03:49;100300.58;;;5.50;83.92
50632;BME280;49583;45.590;-122.498;2022-12-29T08:06:08;100293.61;;;5.48;84.05
50632;BME280;49583;45.590;-122.498;2022-12-29T08:08:22;100286.48;;;5.46;84.14
50632;BME280;49583;45.590;-122.498;2022-12-29T08:10:35;100284.64;;;5.45;84.26
50632;BME280;49583;45.590;-122.498;2022-12-29T08:12:48;100283.85;;;5.44;84.26
50632;BME280;49583;45.590;-122.498;2022-12-29T08:15:02;100286.54;;;5.43;84.27
50632;BME280;49583;45.590;-122.498;2022-12-29T08:17:15;100286.33;;;5.42;84.38
50632;BME280;49583;45.590;-122.498;2022-12-29T08:19:28;100280.96;;;5.41;84.31
50632;BME280;49583;45.590;-122.498;2022-12-29T08:21:42;100280.23;;;5.40;84.34
50632;BME280;49583;45.590;-122.498;2022-12-29T08:23:55;100275.19;;;5.38;84.53
50632;BME280;49583;45.590;-122.498;2022-12-29T08:26:09;100272.84;;;5.36;84.51
50632;BME280;49583;45.590;-122.498;2022-12-29T08:28:22;100272.80;;;5.34;84.49
50632;BME280;49583;45.590;-122.498;2022-12-29T08:30:35;100267.37;;;5.32;84.66
50632;BME280;49583;45.590;-122.498;2022-12-29T08:32:48;100261.95;;;5.30;84.74
50632;BME280;49583;45.590;-122.498;2022-12-29T08:35:01;100269.73;;;5.29;84.90
50632;BME280;49583;45.590;-122.498;2022-12-29T08:37:14;100259.96;;;5.27;84.82
50632;BME280;49583;45.590;-122.498;2022-12-29T08:39:27;100259.07;;;5.25;84.99
50632;BME280;49583;45.590;-122.498;2022-12-29T08:41:40;100253.00;;;5.25;85.05
50632;BME280;49583;45.590;-122.498;2022-12-29T08:43:53;100253.70;;;5.25;85.04
50632;BME280;49583;45.590;-122.498;2022-12-29T08:46:06;100250.48;;;5.26;85.06
50632;BME280;49583;45.590;-122.498;2022-12-29T08:48:19;100242.95;;;5.26;84.88
50632;BME280;49583;45.590;-122.498;2022-12-29T08:50:32;100244.67;;;5.26;85.07
50632;BME280;49583;45.590;-122.498;2022-12-29T08:52:46;100243.36;;;5.27;85.00
50632;BME280;49583;45.590;-122.498;2022-12-29T08:54:59;100250.27;;;5.27;84.96
50632;BME280;49583;45.590;-122.498;2022-12-29T08:57:12;100243.75;;;5.27;84.84
50632;BME280;49583;45.590;-122.498;2022-12-29T08:59:43;100237.05;;;5.26;84.83
50632;BME280;49583;45.590;-122.498;2022-12-29T09:01:57;100233.25;;;5.26;85.14
50632;BME280;49583;45.590;-122.498;2022-12-29T09:04:11;100231.70;;;5.26;84.95
50632;BME280;49583;45.590;-122.498;2022-12-29T09:06:26;100226.58;;;5.23;85.01
50632;BME280;49583;45.590;-122.498;2022-12-29T09:08:44;100228.08;;;5.26;85.37
50632;BME280;49583;45.590;-122.498;2022-12-29T09:10:57;100228.27;;;5.28;85.00
50632;BME280;49583;45.590;-122.498;2022-12-29T09:13:18;100224.40;;;5.28;85.27
50632;BME280;49583;45.590;-122.498;2022-12-29T09:15:31;100219.83;;;5.28;85.08
50632;BME280;49583;45.590;-122.498;2022-12-29T09:17:44;100222.39;;;5.28;85.13
50632;BME280;49583;45.590;-122.498;2022-12-29T09:19:57;100218.20;;;5.28;85.35
50632;BME280;49583;45.590;-122.498;2022-12-29T09:22:10;100217.30;;;5.27;85.24
50632;BME280;49583;45.590;-122.498;2022-12-29T09:24:23;100219.14;;;5.26;85.41
50632;BME280;49583;45.590;-122.498;2022-12-29T09:26:37;100217.78;;;5.25;85.50
50632;BME280;49583;45.590;-122.498;2022-12-29T09:28:55;100204.60;;;5.23;85.19
50632;BME280;49583;45.590;-122.498;2022-12-29T09:31:09;100210.67;;;5.23;85.45
50632;BME280;49583;45.590;-122.498;2022-12-29T09:33:22;100212.04;;;5.23;85.51
50632;BME280;49583;45.590;-122.498;2022-12-29T09:35:36;100205.49;;;5.22;85.32
50632;BME280;49583;45.590;-122.498;2022-12-29T09:37:48;100204.48;;;5.22;85.46
50632;BME280;49583;45.590;-122.498;2022-12-29T09:40:02;100203.62;;;5.21;85.39
50632;BME280;49583;45.590;-122.498;2022-12-29T09:42:22;100201.35;;;5.21;85.45
50632;BME280;49583;45.590;-122.498;2022-12-29T09:44:50;100199.95;;;5.21;85.77
50632;BME280;49583;45.590;-122.498;2022-12-29T09:47:05;100197.05;;;5.22;86.08
50632;BME280;49583;45.590;-122.498;2022-12-29T09:49:25;100195.19;;;5.22;85.75
50632;BME280;49583;45.590;-122.498;2022-12-29T09:51:45;100192.84;;;5.24;85.56
50632;BME280;49583;45.590;-122.498;2022-12-29T09:54:03;100190.00;;;5.24;85.84
50632;BME280;49583;45.590;-122.498;2022-12-29T09:56:22;100189.58;;;5.25;85.77
50632;BME280;49583;45.590;-122.498;2022-12-29T09:58:39;100188.44;;;5.26;85.61
50632;BME280;49583;45.590;-122.498;2022-12-29T10:00:56;100189.99;;;5.27;85.68
50632;BME280;49583;45.590;-122.498;2022-12-29T10:03:16;100190.08;;;5.27;85.56
50632;BME280;49583;45.590;-122.498;2022-12-29T10:05:37;100178.74;;;5.27;85.19
50632;BME280;49583;45.590;-122.498;2022-12-29T10:07:55;100184.73;;;5.27;85.29
50632;BME280;49583;45.590;-122.498;2022-12-29T10:10:26;100185.88;;;5.26;85.31
50632;BME280;49583;45.590;-122.498;2022-12-29T10:12:54;100187.66;;;5.27;85.33
50632;BME280;49583;45.590;-122.498;2022-12-29T10:15:24;100189.91;;;5.26;85.42
50632;BME280;49583;45.590;-122.498;2022-12-29T10:17:44;100189.32;;;5.25;85.27
50632;BME280;49583;45.590;-122.498;2022-12-29T10:20:14;100187.35;;;5.24;85.06
50632;BME280;49583;45.590;-122.498;2022-12-29T10:22:41;100188.37;;;5.24;85.35
50632;BME280;49583;45.590;-122.498;2022-12-29T10:24:57;100186.23;;;5.25;84.88
50632;BME280;49583;45.590;-122.498;2022-12-29T10:27:15;100185.17;;;5.26;85.25
50632;BME280;49583;45.590;-122.498;2022-12-29T10:29:32;100189.45;;;5.27;85.04
50632;BME280;49583;45.590;-122.498;2022-12-29T10:31:47;100185.32;;;5.26;84.95
50632;BME280;49583;45.590;-122.498;2022-12-29T10:34:03;100184.41;;;5.27;85.03
50632;BME280;49583;45.590;-122.498;2022-12-29T10:36:21;100187.27;;;5.27;84.92
50632;BME280;49583;45.590;-122.498;2022-12-29T10:38:40;100184.80;;;5.27;85.00
50632;BME280;49583;45.590;-122.498;2022-12-29T10:41:02;100182.95;;;5.27;84.71
50632;BME280;49583;45.590;-122.498;2022-12-29T10:43:24;100175.45;;;5.28;84.98
50632;BME280;49583;45.590;-122.498;2022-12-29T10:45:38;100166.58;;;5.27;84.78
50632;BME280;49583;45.590;-122.498;2022-12-29T10:47:55;100171.55;;;5.27;84.51
50632;BME280;49583;45.590;-122.498;2022-12-29T10:50:13;100163.64;;;5.27;84.68
50632;BME280;49583;45.590;-122.498;2022-12-29T10:52:27;100166.40;;;5.26;84.82
50632;BME280;49583;45.590;-122.498;2022-12-29T10:54:46;100167.11;;;5.26;84.55
50632;BME280;49583;45.590;-122.498;2022-12-29T10:57:03;100169.42;;;5.27;84.79
50632;BME280;49583;45.590;-122.498;2022-12-29T10:59:24;100175.55;;;5.26;84.49
50632;BME280;49583;45.590;-122.498;2022-12-29T11:01:44;100164.12;;;5.25;84.39
50632;BME280;49583;45.590;-122.498;2022-12-29T11:04:07;100160.47;;;5.23;84.48
50632;BME280;49583;45.590;-122.498;2022-12-29T11:06:27;100161.08;;;5.23;84.51
50632;BME280;49583;45.590;-122.498;2022-12-29T11:08:44;100161.30;;;5.22;84.54
50632;BME280;49583;45.590;-122.498;2022-12-29T11:11:07;100147.64;;;5.22;84.40
50632;BME280;49583;45.590;-122.498;2022-12-29T11:13:27;100141.57;;;5.21;84.44
50632;BME280;49583;45.590;-122.498;2022-12-29T11:15:48;100143.45;;;5.20;84.55
50632;BME280;49583;45.590;-122.498;2022-12-29T11:18:02;100141.56;;;5.19;84.43
50632;BME280;49583;45.590;-122.498;2022-12-29T11:20:33;100138.16;;;5.19;84.56
50632;BME280;49583;45.590;-122.498;2022-12-29T11:22:49;100132.14;;;5.18;84.36
50632;BME280;49583;45.590;-122.498;2022-12-29T11:25:14;100140.58;;;5.17;84.40
50632;BME280;49583;45.590;-122.498;2022-12-29T11:27:28;100140.77;;;5.16;84.64
50632;BME280;49583;45.590;-122.498;2022-12-29T11:29:42;100133.85;;;5.16;84.25
50632;BME280;49583;45.590;-122.498;2022-12-29T11:31:56;100137.52;;;5.14;84.45
50632;BME280;49583;45.590;-122.498;2022-12-29T11:34:15;100137.66;;;5.14;84.60
50632;BME280;49583;45.590;-122.498;2022-12-29T11:36:29;100128.56;;;5.13;84.37
50632;BME280;49583;45.590;-122.498;2022-12-29T11:38:46;100139.23;;;5.13;84.16
50632;BME280;49583;45.590;-122.498;2022-12-29T11:41:01;100140.92;;;5.12;84.38
50632;BME280;49583;45.590;-122.498;2022-12-29T11:43:23;100134.56;;;5.09;84.58
50632;BME280;49583;45.590;-122.498;2022-12-29T11:45:47;100134.00;;;5.07;84.05
50632;BME280;49583;45.590;-122.498;2022-12-29T11:48:06;100142.81;;;5.03;84.15